createdAt,value
2022-10-28T00:01:15.937Z,100546.06
2022-10-28T00:03:45.991Z,100550.59
2022-10-28T00:06:17.563Z,100529.94
2022-10-28T00:08:45.203Z,100523.41
2022-10-28T00:11:21.803Z,100520.56
2022-10-28T00:13:52.502Z,100518.53
2022-10-28T00:16:23.546Z,100525.63
2022-10-28T00:18:53.888Z,100526.28
2022-10-28T00:21:30.191Z,100530.66
2022-10-28T00:23:57.796Z,100521.59
2022-10-28T00:26:30.623Z,100518.06
2022-10-28T00:29:04.347Z,100502.78
2022-10-28T00:31:33.443Z,100504.31
2022-10-28T00:34:03.851Z,100488.69
2022-10-28T00:36:34.462Z,100497.09
2022-10-28T00:39:04.110Z,100490.72
2022-10-28T00:41:35.196Z,100481.78
2022-10-28T00:44:37.796Z,100495.75
2022-10-28T00:47:17.635Z,100478.78
2022-10-28T00:49:47.847Z,100481.47
2022-10-28T00:52:24.367Z,100482.47
2022-10-28T00:54:53.211Z,100470.72
2022-10-28T00:57:25.109Z,100476.25
2022-10-28T00:59:54.298Z,100471.72
2022-10-28T01:02:21.992Z,100476.09
2022-10-28T01:04:50.410Z,100477.25
2022-10-28T01:07:17.976Z,100479.94
2022-10-28T01:09:46.002Z,100463.66
2022-10-28T01:12:32.204Z,100456.59
2022-10-28T01:15:32.912Z,100474.56
2022-10-28T01:18:09.258Z,100456.25
2022-10-28T01:20:41.612Z,100451.06
2022-10-28T01:23:43.662Z,100455.41
2022-10-28T01:26:23.022Z,100449.88
2022-10-28T01:29:11.093Z,100455.78
2022-10-28T01:31:47.427Z,100451.25
2022-10-28T01:34:48.762Z,100450.22
2022-10-28T01:37:34.203Z,100450.22
2022-10-28T01:40:16.063Z,100455.47
2022-10-28T01:43:13.769Z,100435.44
2022-10-28T01:45:52.047Z,100431.75
2022-10-28T01:48:25.292Z,100437.78
2022-10-28T01:50:59.108Z,100431.44
2022-10-28T01:53:33.804Z,100424.22
2022-10-28T01:56:07.511Z,100433.94
2022-10-28T01:58:38.556Z,100431.75
2022-10-28T02:01:09.261Z,100414.63
2022-10-28T02:03:37.261Z,100412.47
2022-10-28T02:06:07.918Z,100411.09
2022-10-28T02:08:43.979Z,100398.16
2022-10-28T02:11:14.416Z,100394.31
2022-10-28T02:14:22.904Z,100387.06
2022-10-28T02:16:58.484Z,100375.13
2022-10-28T02:19:51.262Z,100379.50
2022-10-28T02:22:23.876Z,100369.44
2022-10-28T02:25:21.917Z,100363.19
2022-10-28T02:27:55.818Z,100343.38
2022-10-28T02:30:34.921Z,100334.97
2022-10-28T02:33:07.027Z,100347.19
2022-10-28T02:35:53.121Z,100359.81
2022-10-28T02:38:27.964Z,100358.81
2022-10-28T02:41:02.419Z,100353.44
2022-10-28T02:43:35.267Z,100347.19
2022-10-28T02:46:04.708Z,100342.69
2022-10-28T02:48:39.884Z,100332.91
2022-10-28T02:51:15.301Z,100324.34
2022-10-28T02:54:19.102Z,100318.47
2022-10-28T02:56:55.619Z,100308.06
2022-10-28T02:59:25.049Z,100305.72
2022-10-28T03:01:52.700Z,100306.06
2022-10-28T03:04:20.311Z,100311.94
2022-10-28T03:06:47.899Z,100302.03
2022-10-28T03:09:15.392Z,100301.00
2022-10-28T03:11:43.027Z,100296.97
2022-10-28T03:14:13.215Z,100292.25
2022-10-28T03:16:43.462Z,100279.31
2022-10-28T03:19:10.946Z,100266.69
2022-10-28T03:21:38.461Z,100266.50
2022-10-28T03:24:06.280Z,100249.19
2022-10-28T03:26:33.766Z,100243.66
2022-10-28T03:29:01.285Z,100237.25
2022-10-28T03:31:29.332Z,100237.44
2022-10-28T03:33:56.839Z,100240.13
2022-10-28T03:36:24.446Z,100226.69
2022-10-28T03:38:51.989Z,100224.81
2022-10-28T03:41:19.587Z,100226.69
2022-10-28T03:43:47.028Z,100219.44
2022-10-28T03:46:14.556Z,100213.22
2022-10-28T03:48:42.021Z,100202.47
2022-10-28T03:51:09.578Z,100197.75
2022-10-28T03:53:37.116Z,100182.63
2022-10-28T03:56:05.264Z,100161.09
2022-10-28T03:58:36.045Z,100162.78
2022-10-28T04:01:05.678Z,100164.63
2022-10-28T04:03:33.175Z,100174.56
2022-10-28T04:06:00.676Z,100159.44
2022-10-28T04:08:28.195Z,100145.13
2022-10-28T04:10:55.692Z,100106.00
2022-10-28T04:13:23.121Z,100127.69
2022-10-28T04:15:50.633Z,100132.03
2022-10-28T04:18:18.104Z,100137.41
2022-10-28T04:20:46.571Z,100128.34
2022-10-28T04:23:17.066Z,100116.75
2022-10-28T04:25:45.079Z,100127.69
2022-10-28T04:28:12.576Z,100121.66
2022-10-28T04:30:40.086Z,100116.44
2022-10-28T04:33:07.611Z,100113.06
2022-10-28T04:35:35.162Z,100114.09
2022-10-28T04:38:02.811Z,100101.00
2022-10-28T04:40:30.423Z,100091.63
2022-10-28T04:42:57.851Z,100092.16
2022-10-28T04:45:25.419Z,100082.03
2022-10-28T04:48:01.896Z,100061.38
2022-10-28T04:50:29.523Z,100050.97
2022-10-28T04:52:57.030Z,100052.19
2022-10-28T04:55:24.619Z,100046.94
2022-10-28T04:57:59.927Z,100047.16
2022-10-28T05:00:28.940Z,100050.00
2022-10-28T05:02:57.358Z,100070.00
2022-10-28T05:05:25.976Z,100061.59
2022-10-28T05:07:53.659Z,100046.94
2022-10-28T05:10:21.437Z,100033.34
2022-10-28T05:12:49.083Z,100019.16
2022-10-28T05:15:17.042Z,99998.16
2022-10-28T05:17:46.398Z,99978.13
2022-10-28T05:20:16.373Z,99957.66
2022-10-28T05:22:49.122Z,99965.91
2022-10-28T05:25:17.712Z,99958.00
2022-10-28T05:27:45.764Z,99959.84
2022-10-28T05:30:14.342Z,99936.69
2022-10-28T05:32:41.934Z,99925.06
2022-10-28T05:35:10.061Z,99934.63
2022-10-28T05:37:38.028Z,99920.34
2022-10-28T05:40:06.283Z,99915.81
2022-10-28T05:42:33.720Z,99909.59
2022-10-28T05:45:01.230Z,99896.16
2022-10-28T05:47:28.689Z,99890.41
2022-10-28T05:49:56.236Z,99876.16
2022-10-28T05:52:23.755Z,99876.63
2022-10-28T05:54:51.265Z,99877.63
2022-10-28T05:57:18.740Z,99877.44
2022-10-28T05:59:46.233Z,99872.91
2022-10-28T06:02:15.212Z,99871.91
2022-10-28T06:04:42.744Z,99863.47
2022-10-28T06:07:10.197Z,99865.50
2022-10-28T06:09:37.758Z,99854.91
2022-10-28T06:12:05.307Z,99850.56
2022-10-28T06:14:33.005Z,99847.19
2022-10-28T06:17:00.730Z,99842.50
2022-10-28T06:19:28.273Z,99853.25
2022-10-28T06:21:55.729Z,99843.16
2022-10-28T06:24:23.240Z,99840.47
2022-10-28T06:26:50.826Z,99832.88
2022-10-28T06:29:19.067Z,99821.06
2022-10-28T06:31:46.599Z,99813.84
2022-10-28T06:34:14.104Z,99807.63
2022-10-28T06:36:41.991Z,99812.84
2022-10-28T06:39:09.604Z,99809.13
2022-10-28T06:41:37.187Z,99802.72
2022-10-28T06:44:04.831Z,99794.47
2022-10-28T06:46:34.040Z,99791.78
2022-10-28T06:49:04.806Z,99792.88
2022-10-28T06:51:32.664Z,99794.38
2022-10-28T06:54:00.393Z,99786.31
2022-10-28T06:56:27.943Z,99807.00
2022-10-28T06:58:55.660Z,99804.50
2022-10-28T07:01:23.272Z,99795.78
2022-10-28T07:03:50.823Z,99812.13
2022-10-28T07:06:18.401Z,99801.53
2022-10-28T07:08:45.959Z,99798.84
2022-10-28T07:11:14.173Z,99798.84
2022-10-28T07:13:42.512Z,99795.31
2022-10-28T07:16:11.871Z,99787.25
2022-10-28T07:18:39.481Z,99781.19
2022-10-28T07:21:07.109Z,99770.44
2022-10-28T07:23:35.055Z,99772.13
2022-10-28T07:26:02.594Z,99763.03
2022-10-28T07:28:30.834Z,99763.69
2022-10-28T07:31:02.709Z,99776.13
2022-10-28T07:33:30.513Z,99783.97
2022-10-28T07:35:58.040Z,99783.16
2022-10-28T07:38:26.547Z,99777.59
2022-10-28T07:40:54.168Z,99792.06
2022-10-28T07:43:21.775Z,99781.13
2022-10-28T07:45:55.379Z,99764.63
2022-10-28T07:48:23.245Z,99773.31
2022-10-28T07:50:50.806Z,99767.09
2022-10-28T07:53:18.374Z,99770.00
2022-10-28T07:55:45.918Z,99768.50
2022-10-28T07:58:13.403Z,99751.53
2022-10-28T08:00:41.011Z,99766.28
2022-10-28T08:03:08.734Z,99760.66
2022-10-28T08:05:36.207Z,99740.03
2022-10-28T08:08:03.785Z,99720.47
2022-10-28T08:10:31.291Z,99717.47
2022-10-28T08:13:00.855Z,99732.50
2022-10-28T08:15:29.907Z,99766.34
2022-10-28T08:17:57.602Z,99768.75
2022-10-28T08:20:25.262Z,99750.41
2022-10-28T08:22:53.075Z,99774.72
2022-10-28T08:25:20.840Z,99749.72
2022-10-28T08:30:15.989Z,99761.41
2022-10-28T08:32:43.472Z,99771.97
2022-10-28T08:35:11.018Z,99765.19
2022-10-28T08:37:38.549Z,99784.50
2022-10-28T08:40:06.888Z,99790.50
2022-10-28T08:42:57.528Z,99785.00
2022-10-28T08:45:53.200Z,99802.94
2022-10-28T08:48:26.425Z,99826.06
2022-10-28T08:51:09.654Z,99849.94
2022-10-28T08:54:03.918Z,99874.31
2022-10-28T08:56:46.296Z,99890.56
2022-10-28T08:59:19.092Z,99917.00
2022-10-28T09:01:49.200Z,99927.75
2022-10-28T09:04:23.120Z,99945.38
2022-10-28T09:06:50.706Z,99980.31
2022-10-28T09:09:21.885Z,100024.25
2022-10-28T09:12:05.496Z,100037.81
2022-10-28T09:15:02.061Z,100063.16
2022-10-28T09:17:32.618Z,100071.41
2022-10-28T09:20:05.642Z,100095.75
2022-10-28T09:22:45.351Z,100125.91
2022-10-28T09:25:21.967Z,100132.88
2022-10-28T09:27:55.577Z,100143.75
2022-10-28T09:30:38.837Z,100149.00
2022-10-28T09:33:41.661Z,100164.91
2022-10-28T09:36:17.012Z,100172.41
2022-10-28T09:38:45.733Z,100197.81
2022-10-28T09:41:27.838Z,100207.88
2022-10-28T09:44:05.135Z,100226.13
2022-10-28T09:46:36.233Z,100222.75
2022-10-28T09:49:11.165Z,100242.50
2022-10-28T09:51:49.967Z,100239.13
2022-10-28T09:54:19.625Z,100254.69
2022-10-28T09:56:47.174Z,100258.19
2022-10-28T09:59:16.519Z,100267.91
2022-10-28T10:01:46.775Z,100266.09
2022-10-28T10:04:21.010Z,100274.34
2022-10-28T10:07:01.050Z,100280.06
2022-10-28T10:09:31.456Z,100289.78
2022-10-28T10:12:13.419Z,100301.34
2022-10-28T10:14:46.044Z,100286.13
2022-10-28T10:17:45.911Z,100304.88
2022-10-28T10:20:19.054Z,100286.47
2022-10-28T10:22:49.052Z,100286.00
2022-10-28T10:25:19.276Z,100290.47
2022-10-28T10:27:51.710Z,100294.66
2022-10-28T10:30:24.385Z,100297.53
2022-10-28T10:32:52.775Z,100306.34
2022-10-28T10:35:25.260Z,100307.78
2022-10-28T10:37:55.953Z,100318.47
2022-10-28T10:40:34.002Z,100334.97
2022-10-28T10:43:30.900Z,100350.94
2022-10-28T10:46:08.120Z,100364.56
2022-10-28T10:48:36.741Z,100373.25
2022-10-28T10:51:12.575Z,100387.50
2022-10-28T10:53:40.812Z,100393.50
2022-10-28T10:56:11.159Z,100393.50
2022-10-28T10:58:47.301Z,100396.75
2022-10-28T11:01:21.080Z,100409.81
2022-10-28T11:03:54.227Z,100408.47
2022-10-28T11:06:26.833Z,100413.66
2022-10-28T11:09:03.986Z,100409.72
2022-10-28T11:11:37.457Z,100419.72
2022-10-28T11:14:11.043Z,100418.06
2022-10-28T11:16:53.509Z,100415.22
2022-10-28T11:19:24.649Z,100428.00
2022-10-28T11:22:08.400Z,100429.03
2022-10-28T11:24:45.099Z,100444.78
2022-10-28T11:27:39.228Z,100433.84
2022-10-28T11:30:13.973Z,100440.09
2022-10-28T11:33:28.657Z,100444.59
2022-10-28T11:36:11.668Z,100444.44
2022-10-28T11:38:59.592Z,100456.22
2022-10-28T11:41:51.937Z,100460.19
2022-10-28T11:44:52.951Z,100467.56
2022-10-28T11:47:41.115Z,100475.06
2022-10-28T11:50:58.570Z,100470.63
2022-10-28T11:53:37.325Z,100467.63
2022-10-28T11:56:23.305Z,100477.69
2022-10-28T11:58:56.777Z,100485.91
2022-10-28T12:01:45.961Z,100491.22
2022-10-28T12:04:51.556Z,100491.50
2022-10-28T12:07:59.819Z,100510.63
2022-10-28T12:10:42.548Z,100495.97
2022-10-28T12:13:28.920Z,100501.03
2022-10-28T12:16:07.517Z,100506.69
2022-10-28T12:18:49.274Z,100510.84
2022-10-28T12:24:09.672Z,100526.97
2022-10-28T12:26:59.437Z,100530.25
2022-10-28T12:29:38.816Z,100534.91
2022-10-28T12:32:13.318Z,100541.31
2022-10-28T12:34:49.294Z,100543.88
2022-10-28T12:37:22.157Z,100545.72
2022-10-28T12:40:04.868Z,100552.00
2022-10-28T12:42:38.936Z,100548.97
2022-10-28T12:45:12.078Z,100553.00
2022-10-28T12:47:45.793Z,100568.75
2022-10-28T12:50:17.613Z,100560.94
2022-10-28T12:53:14.405Z,100554.53
2022-10-28T12:55:51.505Z,100561.75
2022-10-28T12:58:58.189Z,100574.03
2022-10-28T13:01:31.078Z,100583.78
2022-10-28T13:03:58.881Z,100570.41
2022-10-28T13:06:29.661Z,100573.81
2022-10-28T13:09:32.189Z,100578.38
2022-10-28T13:12:27.006Z,100566.00
2022-10-28T13:17:52.475Z,100575.69
2022-10-28T13:20:28.389Z,100572.53
2022-10-28T13:23:31.251Z,100572.34
2022-10-28T13:26:39.847Z,100573.16
2022-10-28T13:29:18.363Z,100573.50
2022-10-28T13:31:47.987Z,100577.53
2022-10-28T13:34:18.886Z,100587.50
2022-10-28T13:36:57.524Z,100587.16
2022-10-28T13:39:28.205Z,100591.16
2022-10-28T13:42:14.940Z,100592.69
2022-10-28T13:44:50.146Z,100599.03
2022-10-28T13:47:17.702Z,100593.84
2022-10-28T13:50:33.102Z,100590.50
2022-10-28T13:53:25.595Z,100606.97
2022-10-28T13:55:58.116Z,100604.97
2022-10-28T13:58:26.895Z,100604.47
2022-10-28T14:00:55.109Z,100595.44
2022-10-28T14:03:26.012Z,100603.50
2022-10-28T14:05:57.672Z,100602.47
2022-10-28T14:08:29.587Z,100601.31
2022-10-28T14:11:05.993Z,100609.91
2022-10-28T14:13:47.939Z,100611.78
2022-10-28T14:16:39.379Z,100606.44
2022-10-28T14:19:06.881Z,100610.16
2022-10-28T14:22:01.976Z,100610.81
2022-10-28T14:24:40.838Z,100617.72
2022-10-28T14:27:08.432Z,100618.53
2022-10-28T14:29:48.554Z,100624.28
2022-10-28T14:32:31.172Z,100631.59
2022-10-28T14:35:10.709Z,100627.06
2022-10-28T14:38:10.650Z,100624.06
2022-10-28T14:40:54.160Z,100617.84
2022-10-28T14:43:40.296Z,100630.94
2022-10-28T14:46:34.213Z,100625.22
2022-10-28T14:49:03.849Z,100621.84
2022-10-28T14:51:39.613Z,100630.09
2022-10-28T14:54:13.572Z,100620.84
2022-10-28T14:56:41.452Z,100630.94
2022-10-28T14:59:26.124Z,100620.84
2022-10-28T15:01:59.726Z,100619.34
2022-10-28T15:04:29.112Z,100625.06
2022-10-28T15:06:57.474Z,100630.97
2022-10-28T15:09:29.621Z,100628.44
2022-10-28T15:12:01.082Z,100628.09
2022-10-28T15:14:41.902Z,100628.06
2022-10-28T15:17:17.090Z,100630.88
2022-10-28T15:19:47.103Z,100623.09
2022-10-28T15:22:20.769Z,100629.44
2022-10-28T15:25:08.249Z,100626.88
2022-10-28T15:27:38.270Z,100623.88
2022-10-28T15:30:26.566Z,100628.88
2022-10-28T15:32:55.720Z,100640.63
2022-10-28T15:35:38.414Z,100631.22
2022-10-28T15:38:21.338Z,100630.34
2022-10-28T15:40:50.178Z,100643.06
2022-10-28T15:43:21.098Z,100641.31
2022-10-28T15:45:48.727Z,100642.97
2022-10-28T15:48:23.730Z,100639.91
2022-10-28T15:51:11.012Z,100647.44
2022-10-28T15:53:40.617Z,100647.91
2022-10-28T15:56:13.911Z,100643.69
2022-10-28T15:58:43.461Z,100649.25
2022-10-28T16:01:40.658Z,100652.25
2022-10-28T16:04:23.355Z,100651.53
2022-10-28T16:06:53.348Z,100646.00
2022-10-28T16:09:34.141Z,100647.53
2022-10-28T16:12:23.704Z,100648.91
2022-10-28T16:15:00.734Z,100646.91
2022-10-28T16:17:36.277Z,100640.38
2022-10-28T16:20:17.222Z,100656.50
2022-10-28T16:22:46.726Z,100654.97
2022-10-28T16:25:17.578Z,100656.97
2022-10-28T16:27:45.059Z,100654.63
2022-10-28T16:30:13.101Z,100648.16
2022-10-28T16:32:44.441Z,100654.81
2022-10-28T16:35:22.655Z,100661.81
2022-10-28T16:37:55.146Z,100665.13
2022-10-28T16:43:22.629Z,100666.06
2022-10-28T16:45:52.443Z,100669.06
2022-10-28T16:48:22.659Z,100670.91
2022-10-28T16:51:02.583Z,100680.78
2022-10-28T16:53:32.099Z,100673.75
2022-10-28T16:55:59.662Z,100680.41
2022-10-28T16:58:28.804Z,100674.38
2022-10-28T17:00:57.114Z,100682.56
2022-10-28T17:03:24.628Z,100686.06
2022-10-28T17:05:52.202Z,100689.78
2022-10-28T17:08:36.236Z,100680.88
2022-10-28T17:11:07.474Z,100675.81
2022-10-28T17:13:35.036Z,100681.34
2022-10-28T17:16:02.617Z,100681.66
2022-10-28T17:18:30.765Z,100675.41
2022-10-28T17:21:02.455Z,100675.72
2022-10-28T17:23:30.548Z,100677.72
2022-10-28T17:26:00.867Z,100681.56
2022-10-28T17:28:28.826Z,100676.50
2022-10-28T17:31:07.714Z,100664.22
2022-10-28T17:33:35.346Z,100671.59
2022-10-28T17:36:10.586Z,100671.59
2022-10-28T17:38:38.355Z,100678.81
2022-10-28T17:41:06.000Z,100670.75
2022-10-28T17:43:33.628Z,100674.41
2022-10-28T17:46:05.747Z,100674.41
2022-10-28T17:48:34.231Z,100667.91
2022-10-28T17:51:01.822Z,100676.50
2022-10-28T17:53:29.448Z,100676.19
2022-10-28T17:56:01.749Z,100671.53
2022-10-28T17:58:29.523Z,100666.28
2022-10-28T18:01:02.209Z,100666.47
2022-10-28T18:03:33.990Z,100679.19
2022-10-28T18:06:07.349Z,100681.88
2022-10-28T18:08:39.142Z,100687.41
2022-10-28T18:11:08.746Z,100705.47
2022-10-28T18:13:39.107Z,100698.44
2022-10-28T18:16:09.550Z,100694.03
2022-10-28T18:18:42.031Z,100707.16
2022-10-28T18:21:14.161Z,100706.31
2022-10-28T18:23:41.869Z,100715.38
2022-10-28T18:26:14.958Z,100714.38
2022-10-28T18:28:43.827Z,100722.41
2022-10-28T18:31:12.438Z,100722.97
2022-10-28T18:33:41.167Z,100722.81
2022-10-28T18:36:13.709Z,100726.19
2022-10-28T18:38:41.708Z,100723.50
2022-10-28T18:41:14.979Z,100726.88
2022-10-28T18:43:42.578Z,100733.09
2022-10-28T18:46:11.377Z,100733.78
2022-10-28T18:48:39.991Z,100726.72
2022-10-28T18:51:10.894Z,100733.94
2022-10-28T18:53:44.142Z,100720.50
2022-10-28T18:56:23.405Z,100735.47
2022-10-28T18:58:52.389Z,100745.19
2022-10-28T19:01:23.313Z,100755.94
2022-10-28T19:03:52.998Z,100741.97
2022-10-28T19:06:21.718Z,100730.94
2022-10-28T19:08:54.045Z,100745.78
2022-10-28T19:11:23.274Z,100751.81
2022-10-28T19:13:50.823Z,100748.53
2022-10-28T19:16:18.881Z,100753.28
2022-10-28T19:18:46.424Z,100740.22
2022-10-28T19:21:16.503Z,100739.91
2022-10-28T19:23:44.099Z,100732.56
2022-10-28T19:26:13.787Z,100741.84
2022-10-28T19:28:46.777Z,100745.91
2022-10-28T19:31:17.599Z,100738.38
2022-10-28T19:33:45.644Z,100751.69
2022-10-28T19:36:23.444Z,100759.56
2022-10-28T19:38:55.098Z,100757.31
2022-10-28T19:41:25.171Z,100765.06
2022-10-28T19:43:58.918Z,100773.97
2022-10-28T19:46:29.093Z,100773.78
2022-10-28T19:48:59.530Z,100784.22
2022-10-28T19:51:30.007Z,100791.44
2022-10-28T19:54:05.712Z,100805.72
2022-10-28T19:56:35.160Z,100808.56
2022-10-28T19:59:04.409Z,100809.56
2022-10-28T20:01:34.291Z,100822.16
2022-10-28T20:04:02.207Z,100819.63
2022-10-28T20:06:35.810Z,100825.22
2022-10-28T20:09:04.240Z,100825.38
2022-10-28T20:11:34.109Z,100832.59
2022-10-28T20:14:11.740Z,100835.75
2022-10-28T20:16:42.709Z,100834.03
2022-10-28T20:19:10.722Z,100835.03
2022-10-28T20:21:38.898Z,100837.91
2022-10-28T20:24:07.557Z,100850.75
2022-10-28T20:26:36.997Z,100854.59
2022-10-28T20:29:06.867Z,100852.88
2022-10-28T20:31:34.919Z,100859.13
2022-10-28T20:34:04.088Z,100860.94
2022-10-28T20:36:33.707Z,100867.84
2022-10-28T20:39:02.347Z,100873.97
2022-10-28T20:41:33.037Z,100878.59
2022-10-28T20:44:01.633Z,100878.75
2022-10-28T20:46:29.522Z,100877.22
2022-10-28T20:48:57.334Z,100891.78
2022-10-28T20:51:27.150Z,100886.72
2022-10-28T20:53:55.592Z,100896.78
2022-10-28T20:56:29.359Z,100903.00
2022-10-28T20:58:57.968Z,100900.31
2022-10-28T21:01:28.558Z,100912.59
2022-10-28T21:03:58.701Z,100905.50
2022-10-28T21:06:27.315Z,100914.56
2022-10-28T21:08:55.171Z,100916.53
2022-10-28T21:11:23.795Z,100913.84
2022-10-28T21:13:53.521Z,100923.94
2022-10-28T21:16:21.949Z,100922.38
2022-10-28T21:18:49.932Z,100926.06
2022-10-28T21:21:19.356Z,100923.50
2022-10-28T21:23:46.957Z,100927.19
2022-10-28T21:26:14.669Z,100934.56
2022-10-28T21:28:42.401Z,100935.41
2022-10-28T21:31:12.746Z,100936.94
2022-10-28T21:33:41.805Z,100925.91
2022-10-28T21:36:14.873Z,100937.47
2022-10-28T21:38:42.877Z,100947.94
2022-10-28T21:41:16.592Z,100941.44
2022-10-28T21:43:47.873Z,100949.31
2022-10-28T21:46:16.650Z,100947.50
2022-10-28T21:48:44.585Z,100953.00
2022-10-28T21:51:15.211Z,100952.16
2022-10-28T21:53:44.682Z,100946.78
2022-10-28T21:56:17.681Z,100957.53
2022-10-28T21:58:48.261Z,100954.16
2022-10-28T22:01:23.891Z,100956.81
2022-10-28T22:03:54.704Z,100949.78
2022-10-28T22:06:23.023Z,100957.13
2022-10-28T22:08:54.908Z,100961.66
2022-10-28T22:11:23.941Z,100960.81
2022-10-28T22:14:00.392Z,100971.41
2022-10-28T22:16:29.750Z,100973.94
2022-10-28T22:19:04.125Z,100973.09
2022-10-28T22:21:35.559Z,100975.63
2022-10-28T22:24:03.176Z,100973.94
2022-10-28T22:26:31.977Z,100976.47
2022-10-28T22:29:00.420Z,100976.63
2022-10-28T22:31:32.606Z,100985.41
2022-10-28T22:34:00.778Z,100985.41
2022-10-28T22:36:29.753Z,100986.25
2022-10-28T22:38:57.711Z,100981.00
2022-10-28T22:41:28.431Z,100982.16
2022-10-28T22:43:58.438Z,100989.50
2022-10-28T22:46:28.616Z,100989.63
2022-10-28T22:48:56.852Z,100985.28
2022-10-28T22:51:24.515Z,100988.25
2022-10-28T22:53:52.075Z,100971.75
2022-10-28T22:56:21.895Z,100976.72
2022-10-28T22:58:54.096Z,100971.25
2022-10-28T23:01:22.907Z,100962.50
2022-10-28T23:03:52.211Z,100963.09
2022-10-28T23:06:22.960Z,100964.66
2022-10-28T23:08:50.597Z,100962.41
2022-10-28T23:11:19.993Z,100966.06
2022-10-28T23:13:52.489Z,100974.41
2022-10-28T23:16:20.869Z,100975.81
2022-10-28T23:18:48.899Z,100976.28
2022-10-28T23:21:22.133Z,100976.84
2022-10-28T23:23:56.828Z,100975.28
2022-10-28T23:26:26.042Z,100980.09
2022-10-28T23:28:55.602Z,100978.69
2022-10-28T23:31:24.242Z,100987.00
2022-10-28T23:33:53.935Z,100980.94
2022-10-28T23:36:22.015Z,100992.38
2022-10-28T23:38:49.514Z,100983.50
2022-10-28T23:41:18.904Z,100982.66
2022-10-28T23:43:47.391Z,100983.50
2022-10-28T23:46:15.010Z,100980.53
2022-10-28T23:48:42.724Z,100988.41
2022-10-28T23:51:10.248Z,100984.47
2022-10-28T23:53:38.057Z,100977.84
2022-10-28T23:56:06.307Z,100979.69
2022-10-28T23:58:33.912Z,100987.84
